sensor_id;sensor_type;location;lat;lon;timestamp;pressure;altitude;pressure_sealevel;temperature;humidity
75219;BME280;63801;49.414;19.474;2023-08-20T00:01:12;94412.53;;;17.53;78.23
75219;BME280;63801;49.414;19.474;2023-08-20T00:03:13;94406.66;;;17.47;78.25
75219;BME280;63801;49.414;19.474;2023-08-20T00:05:14;94397.19;;;17.34;78.23
75219;BME280;63801;49.414;19.474;2023-08-20T00:07:15;94406.13;;;17.35;78.00
75219;BME280;63801;49.414;19.474;2023-08-20T00:09:18;94402.97;;;17.29;78.06
75219;BME280;63801;49.414;19.474;2023-08-20T00:11:18;94405.66;;;17.26;78.57
75219;BME280;63801;49.414;19.474;2023-08-20T00:13:19;94405.63;;;17.22;78.46
75219;BME280;63801;49.414;19.474;2023-08-20T00:15:19;94411.06;;;17.22;78.42
75219;BME280;63801;49.414;19.474;2023-08-20T00:17:20;94409.53;;;17.21;78.49
75219;BME280;63801;49.414;19.474;2023-08-20T00:19:21;94411.06;;;17.22;78.51
75219;BME280;63801;49.414;19.474;2023-08-20T00:21:22;94405.63;;;17.22;78.67
75219;BME280;63801;49.414;19.474;2023-08-20T00:23:23;94401.75;;;17.27;78.80
75219;BME280;63801;49.414;19.474;2023-08-20T00:25:24;94396.38;;;17.30;78.85
75219;BME280;63801;49.414;19.474;2023-08-20T00:27:24;94405.72;;;17.33;78.72
75219;BME280;63801;49.414;19.474;2023-08-20T00:29:24;94406.53;;;17.33;78.99
75219;BME280;63801;49.414;19.474;2023-08-20T00:31:24;94405.38;;;17.34;78.89
75219;BME280;63801;49.414;19.474;2023-08-20T00:33:25;94406.53;;;17.33;78.85
75219;BME280;63801;49.414;19.474;2023-08-20T00:35:25;94395.59;;;17.30;78.66
75219;BME280;63801;49.414;19.474;2023-08-20T00:37:26;94402.97;;;17.29;78.88
75219;BME280;63801;49.414;19.474;2023-08-20T00:39:26;94397.50;;;17.26;78.86
75219;BME280;63801;49.414;19.474;2023-08-20T00:41:26;94404.06;;;17.21;78.82
75219;BME280;63801;49.414;19.474;2023-08-20T00:43:27;94404.75;;;17.15;78.89
75219;BME280;63801;49.414;19.474;2023-08-20T00:45:27;94396.88;;;17.06;78.83
75219;BME280;63801;49.414;19.474;2023-08-20T00:47:28;94398.34;;;16.96;78.83
75219;BME280;63801;49.414;19.474;2023-08-20T00:49:29;94386.47;;;16.82;78.82
75219;BME280;63801;49.414;19.474;2023-08-20T00:51:32;94382.19;;;16.77;79.06
75219;BME280;63801;49.414;19.474;2023-08-20T00:53:33;94396.66;;;16.85;79.21
75219;BME280;63801;49.414;19.474;2023-08-20T00:55:33;94400.53;;;16.84;79.29
75219;BME280;63801;49.414;19.474;2023-08-20T00:57:34;94396.66;;;16.85;78.92
75219;BME280;63801;49.414;19.474;2023-08-20T00:59:35;94393.94;;;16.85;79.11
75219;BME280;63801;49.414;19.474;2023-08-20T01:01:36;94388.06;;;16.83;79.14
75219;BME280;63801;49.414;19.474;2023-08-20T01:03:36;94384.94;;;16.81;79.28
75219;BME280;63801;49.414;19.474;2023-08-20T01:05:45;94394.28;;;16.83;79.20
75219;BME280;63801;49.414;19.474;2023-08-20T01:08:14;94391.94;;;16.82;79.31
75219;BME280;63801;49.414;19.474;2023-08-20T01:10:19;94398.13;;;16.79;79.32
75219;BME280;63801;49.414;19.474;2023-08-20T01:12:26;94377.34;;;16.64;79.23
75219;BME280;63801;49.414;19.474;2023-08-20T01:14:26;94410.91;;;16.75;79.27
75219;BME280;63801;49.414;19.474;2023-08-20T01:16:26;94405.84;;;16.73;79.60
75219;BME280;63801;49.414;19.474;2023-08-20T01:18:27;94398.06;;;16.72;79.63
75219;BME280;63801;49.414;19.474;2023-08-20T01:20:33;94403.50;;;16.72;79.66
75219;BME280;63801;49.414;19.474;2023-08-20T01:27:42;94410.41;;;16.66;79.56
75219;BME280;63801;49.414;19.474;2023-08-20T01:29:45;94411.16;;;16.63;79.60
75219;BME280;63801;49.414;19.474;2023-08-20T01:31:46;94409.22;;;16.63;79.82
75219;BME280;63801;49.414;19.474;2023-08-20T01:33:47;94406.88;;;16.61;79.54
75219;BME280;63801;49.414;19.474;2023-08-20T01:35:48;94406.38;;;16.56;79.87
75219;BME280;63801;49.414;19.474;2023-08-20T01:37:48;94408.69;;;16.54;79.64
75219;BME280;63801;49.414;19.474;2023-08-20T01:39:48;94405.16;;;16.50;79.66
75219;BME280;63801;49.414;19.474;2023-08-20T01:41:48;94406.66;;;16.47;79.62
75219;BME280;63801;49.414;19.474;2023-08-20T01:43:49;94401.97;;;16.44;80.02
75219;BME280;63801;49.414;19.474;2023-08-20T01:45:49;94406.97;;;16.42;79.78
75219;BME280;63801;49.414;19.474;2023-08-20T01:47:50;94408.88;;;16.38;79.90
75219;BME280;63801;49.414;19.474;2023-08-20T01:49:50;94403.03;;;16.36;80.02
75219;BME280;63801;49.414;19.474;2023-08-20T01:51:50;94400.63;;;16.31;79.77
75219;BME280;63801;49.414;19.474;2023-08-20T01:53:50;94399.03;;;16.30;79.71
75219;BME280;63801;49.414;19.474;2023-08-20T01:55:51;94397.81;;;16.24;80.05
75219;BME280;63801;49.414;19.474;2023-08-20T01:57:51;94395.84;;;16.25;79.78
75219;BME280;63801;49.414;19.474;2023-08-20T01:59:52;94395.09;;;16.24;80.23
75219;BME280;63801;49.414;19.474;2023-08-20T02:01:52;94400.53;;;16.24;80.21
75219;BME280;63801;49.414;19.474;2023-08-20T02:03:52;94402.81;;;16.22;79.87
75219;BME280;63801;49.414;19.474;2023-08-20T02:05:53;94400.41;;;16.17;80.14
75219;BME280;63801;49.414;19.474;2023-08-20T02:07:53;94396.44;;;16.11;80.13
75219;BME280;63801;49.414;19.474;2023-08-20T02:09:54;94397.91;;;16.05;80.19
75219;BME280;63801;49.414;19.474;2023-08-20T02:11:54;94395.94;;;16.02;79.95
75219;BME280;63801;49.414;19.474;2023-08-20T02:13:54;94395.50;;;16.00;80.30
75219;BME280;63801;49.414;19.474;2023-08-20T02:16:02;94396.66;;;15.99;80.17
75219;BME280;63801;49.414;19.474;2023-08-20T02:18:03;94397.78;;;15.98;80.30
75219;BME280;63801;49.414;19.474;2023-08-20T02:20:04;94407.16;;;16.00;80.64
75219;BME280;63801;49.414;19.474;2023-08-20T02:22:05;94384.84;;;15.88;80.20
75219;BME280;63801;49.414;19.474;2023-08-20T02:24:06;94402.53;;;16.01;80.31
75219;BME280;63801;49.414;19.474;2023-08-20T02:26:07;94397.09;;;16.01;80.25
75219;BME280;63801;49.414;19.474;2023-08-20T02:28:07;94404.09;;;16.02;80.69
75219;BME280;63801;49.414;19.474;2023-08-20T02:30:08;94395.53;;;16.03;80.44
75219;BME280;63801;49.414;19.474;2023-08-20T02:32:08;94397.13;;;16.04;80.74
75219;BME280;63801;49.414;19.474;2023-08-20T02:34:08;94387.69;;;15.98;80.41
75219;BME280;63801;49.414;19.474;2023-08-20T02:36:09;94398.31;;;16.07;80.11
75219;BME280;63801;49.414;19.474;2023-08-20T02:38:09;94400.31;;;16.10;80.16
75219;BME280;63801;49.414;19.474;2023-08-20T02:40:10;94398.00;;;16.12;80.36
75219;BME280;63801;49.414;19.474;2023-08-20T02:42:11;94398.38;;;16.10;80.35
75219;BME280;63801;49.414;19.474;2023-08-20T02:44:11;94400.41;;;16.17;80.38
75219;BME280;63801;49.414;19.474;2023-08-20T02:46:12;94394.22;;;16.20;80.60
75219;BME280;63801;49.414;19.474;2023-08-20T02:48:13;94391.94;;;16.22;80.79
75219;BME280;63801;49.414;19.474;2023-08-20T02:50:14;94402.06;;;16.25;80.72
75219;BME280;63801;49.414;19.474;2023-08-20T02:52:14;94399.78;;;16.27;80.79
75219;BME280;63801;49.414;19.474;2023-08-20T02:54:15;94394.75;;;16.29;80.58
75219;BME280;63801;49.414;19.474;2023-08-20T02:56:15;94399.03;;;16.30;80.34
75219;BME280;63801;49.414;19.474;2023-08-20T02:58:15;94388.91;;;16.27;80.58
75219;BME280;63801;49.414;19.474;2023-08-20T03:00:15;94392.03;;;16.29;80.18
75219;BME280;63801;49.414;19.474;2023-08-20T03:02:16;94393.56;;;16.27;80.64
75219;BME280;63801;49.414;19.474;2023-08-20T03:04:16;94391.94;;;16.22;80.68
75219;BME280;63801;49.414;19.474;2023-08-20T03:06:16;94398.13;;;16.19;80.44
75219;BME280;63801;49.414;19.474;2023-08-20T03:08:17;94392.56;;;16.12;80.68
75219;BME280;63801;49.414;19.474;2023-08-20T03:10:17;94395.28;;;16.12;80.57
75219;BME280;63801;49.414;19.474;2023-08-20T03:12:17;94389.00;;;16.08;80.58
75219;BME280;63801;49.414;19.474;2023-08-20T03:14:18;94391.72;;;16.08;80.55
75219;BME280;63801;49.414;19.474;2023-08-20T03:16:18;94392.88;;;16.07;80.64
75219;BME280;63801;49.414;19.474;2023-08-20T03:18:18;94396.81;;;16.09;80.61
75219;BME280;63801;49.414;19.474;2023-08-20T03:20:19;94400.31;;;16.10;80.68
75219;BME280;63801;49.414;19.474;2023-08-20T03:22:19;94397.59;;;16.10;80.74
75219;BME280;63801;49.414;19.474;2023-08-20T03:24:19;94394.88;;;16.10;80.99
75219;BME280;63801;49.414;19.474;2023-08-20T03:26:19;94395.72;;;16.14;80.71
75219;BME280;63801;49.414;19.474;2023-08-20T03:28:21;94411.28;;;16.17;81.08
75219;BME280;63801;49.414;19.474;2023-08-20T03:30:21;94412.13;;;16.21;81.06
75219;BME280;63801;49.414;19.474;2023-08-20T03:32:22;94413.69;;;16.22;81.14
75219;BME280;63801;49.414;19.474;2023-08-20T03:34:22;94402.81;;;16.22;81.16
75219;BME280;63801;49.414;19.474;2023-08-20T03:36:23;94409.09;;;16.26;81.10
75219;BME280;63801;49.414;19.474;2023-08-20T03:38:23;94411.41;;;16.24;80.57
75219;BME280;63801;49.414;19.474;2023-08-20T03:40:23;94413.75;;;16.26;80.96
75219;BME280;63801;49.414;19.474;2023-08-20T03:42:24;94419.56;;;16.24;80.99
75219;BME280;63801;49.414;19.474;2023-08-20T03:44:24;94418.34;;;16.22;80.85
75219;BME280;63801;49.414;19.474;2023-08-20T03:46:24;94414.44;;;16.19;80.67
75219;BME280;63801;49.414;19.474;2023-08-20T03:48:25;94417.16;;;16.19;80.89
75219;BME280;63801;49.414;19.474;2023-08-20T03:50:25;94424.53;;;16.18;81.11
75219;BME280;63801;49.414;19.474;2023-08-20T03:52:25;94419.47;;;16.17;80.94
75219;BME280;63801;49.414;19.474;2023-08-20T03:54:26;94430.34;;;16.17;80.85
75219;BME280;63801;49.414;19.474;2023-08-20T03:56:26;94428.75;;;16.16;81.21
75219;BME280;63801;49.414;19.474;2023-08-20T03:58:26;94430.69;;;16.15;81.40
75219;BME280;63801;49.414;19.474;2023-08-20T04:00:27;94429.94;;;16.15;80.94
75219;BME280;63801;49.414;19.474;2023-08-20T04:02:27;94430.69;;;16.15;81.28
75219;BME280;63801;49.414;19.474;2023-08-20T04:04:28;94408.78;;;16.05;81.27
75219;BME280;63801;49.414;19.474;2023-08-20T04:06:28;94432.31;;;16.20;81.05
75219;BME280;63801;49.414;19.474;2023-08-20T04:08:29;94430.38;;;16.21;81.59
75219;BME280;63801;49.414;19.474;2023-08-20T04:10:29;94432.38;;;16.24;81.55
75219;BME280;63801;49.414;19.474;2023-08-20T04:12:30;94433.22;;;16.28;81.40
75219;BME280;63801;49.414;19.474;2023-08-20T04:14:30;94434.88;;;16.36;81.94
75219;BME280;63801;49.414;19.474;2023-08-20T04:16:30;94421.75;;;16.41;81.98
75219;BME280;63801;49.414;19.474;2023-08-20T04:18:31;94433.84;;;16.74;82.78
75219;BME280;63801;49.414;19.474;2023-08-20T04:20:32;94437.00;;;17.09;82.90
75219;BME280;63801;49.414;19.474;2023-08-20T04:22:32;94433.13;;;17.47;82.35
75219;BME280;63801;49.414;19.474;2023-08-20T04:24:32;94431.06;;;17.74;81.15
75219;BME280;63801;49.414;19.474;2023-08-20T04:26:33;94423.06;;;17.95;80.77
75219;BME280;63801;49.414;19.474;2023-08-20T04:28:34;94432.88;;;18.03;79.81
75219;BME280;63801;49.414;19.474;2023-08-20T04:30:35;94430.56;;;18.05;79.55
75219;BME280;63801;49.414;19.474;2023-08-20T04:32:35;94429.75;;;18.05;79.65
75219;BME280;63801;49.414;19.474;2023-08-20T04:34:35;94436.06;;;18.16;79.86
75219;BME280;63801;49.414;19.474;2023-08-20T04:36:36;94436.09;;;18.19;79.45
75219;BME280;63801;49.414;19.474;2023-08-20T04:38:36;94433.00;;;18.21;79.44
75219;BME280;63801;49.414;19.474;2023-08-20T04:40:36;94439.25;;;18.21;79.36
75219;BME280;63801;49.414;19.474;2023-08-20T04:42:37;94442.75;;;18.22;79.53
75219;BME280;63801;49.414;19.474;2023-08-20T04:44:38;94440.06;;;18.32;79.84
75219;BME280;63801;49.414;19.474;2023-08-20T04:46:38;94444.06;;;18.46;79.43
75219;BME280;63801;49.414;19.474;2023-08-20T04:48:38;94443.41;;;18.59;79.51
75219;BME280;63801;49.414;19.474;2023-08-20T04:50:38;94447.03;;;18.81;79.99
75219;BME280;63801;49.414;19.474;2023-08-20T04:52:39;94427.19;;;18.95;79.73
75219;BME280;63801;49.414;19.474;2023-08-20T04:54:40;94441.41;;;19.43;79.65
75219;BME280;63801;49.414;19.474;2023-08-20T04:56:40;94435.63;;;19.94;78.91
75219;BME280;63801;49.414;19.474;2023-08-20T04:58:40;94443.03;;;20.53;77.54
75219;BME280;63801;49.414;19.474;2023-08-20T05:00:42;94438.59;;;21.13;76.33
75219;BME280;63801;49.414;19.474;2023-08-20T05:02:42;94426.97;;;21.60;75.27
75219;BME280;63801;49.414;19.474;2023-08-20T05:04:43;94428.97;;;22.15;74.67
75219;BME280;63801;49.414;19.474;2023-08-20T05:06:43;94429.31;;;22.65;74.04
75219;BME280;63801;49.414;19.474;2023-08-20T05:08:43;94434.31;;;23.11;73.33
75219;BME280;63801;49.414;19.474;2023-08-20T05:10:44;94435.44;;;23.47;72.03
75219;BME280;63801;49.414;19.474;2023-08-20T05:12:44;94434.63;;;23.77;71.05
75219;BME280;63801;49.414;19.474;2023-08-20T05:14:44;94431.59;;;23.98;70.43
75219;BME280;63801;49.414;19.474;2023-08-20T05:16:45;94430.22;;;24.10;70.25
75219;BME280;63801;49.414;19.474;2023-08-20T05:18:45;94432.19;;;24.09;69.35
75219;BME280;63801;49.414;19.474;2023-08-20T05:20:45;94432.59;;;24.08;69.03
75219;BME280;63801;49.414;19.474;2023-08-20T05:22:46;94429.44;;;24.09;68.62
75219;BME280;63801;49.414;19.474;2023-08-20T05:24:46;94430.84;;;23.94;67.90
75219;BME280;63801;49.414;19.474;2023-08-20T05:26:46;94428.00;;;23.75;67.91
75219;BME280;63801;49.414;19.474;2023-08-20T05:28:47;94430.72;;;23.48;68.22
75219;BME280;63801;49.414;19.474;2023-08-20T05:30:56;94430.38;;;23.12;68.43
75219;BME280;63801;49.414;19.474;2023-08-20T05:32:57;94432.38;;;22.74;68.42
75219;BME280;63801;49.414;19.474;2023-08-20T05:34:57;94431.53;;;22.36;68.55
75219;BME280;63801;49.414;19.474;2023-08-20T05:36:57;94436.94;;;22.02;69.25
75219;BME280;63801;49.414;19.474;2023-08-20T05:38:58;94438.97;;;21.87;69.89
75219;BME280;63801;49.414;19.474;2023-08-20T05:40:58;94444.50;;;21.80;69.60
75219;BME280;63801;49.414;19.474;2023-08-20T05:42:58;94441.03;;;21.73;69.31
75219;BME280;63801;49.414;19.474;2023-08-20T05:44:59;94439.50;;;21.68;69.58
75219;BME280;63801;49.414;19.474;2023-08-20T05:46:59;94443.44;;;21.60;69.68
75219;BME280;63801;49.414;19.474;2023-08-20T05:49:01;94445.84;;;21.51;69.46
75219;BME280;63801;49.414;19.474;2023-08-20T05:51:01;94451.44;;;21.37;69.38
75219;BME280;63801;49.414;19.474;2023-08-20T05:53:01;94452.28;;;21.23;69.52
75219;BME280;63801;49.414;19.474;2023-08-20T05:55:02;94446.03;;;21.16;70.17
75219;BME280;63801;49.414;19.474;2023-08-20T05:57:03;94434.28;;;21.15;70.62
75219;BME280;63801;49.414;19.474;2023-08-20T05:59:03;94455.31;;;21.43;70.71
75219;BME280;63801;49.414;19.474;2023-08-20T06:01:04;94459.47;;;21.72;70.35
75219;BME280;63801;49.414;19.474;2023-08-20T06:03:04;94458.03;;;22.09;70.20
75219;BME280;63801;49.414;19.474;2023-08-20T06:05:04;94454.47;;;22.60;69.55
75219;BME280;63801;49.414;19.474;2023-08-20T06:07:05;94453.06;;;23.19;68.87
75219;BME280;63801;49.414;19.474;2023-08-20T06:09:05;94448.25;;;23.88;68.46
75219;BME280;63801;49.414;19.474;2023-08-20T06:11:06;94446.78;;;24.56;66.75
75219;BME280;63801;49.414;19.474;2023-08-20T06:13:06;94455.25;;;25.32;66.14
75219;BME280;63801;49.414;19.474;2023-08-20T06:15:07;94449.19;;;25.96;64.46
75219;BME280;63801;49.414;19.474;2023-08-20T06:17:08;94458.22;;;26.49;63.72
75219;BME280;63801;49.414;19.474;2023-08-20T06:19:08;94459.22;;;27.03;62.41
75219;BME280;63801;49.414;19.474;2023-08-20T06:21:08;94455.53;;;27.51;61.17
75219;BME280;63801;49.414;19.474;2023-08-20T06:23:09;94461.00;;;27.93;60.41
75219;BME280;63801;49.414;19.474;2023-08-20T06:25:09;94453.94;;;28.42;59.82
75219;BME280;63801;49.414;19.474;2023-08-20T06:27:10;94455.75;;;28.96;59.08
75219;BME280;63801;49.414;19.474;2023-08-20T06:29:10;94462.56;;;29.51;57.62
75219;BME280;63801;49.414;19.474;2023-08-20T06:31:10;94459.31;;;29.96;56.95
75219;BME280;63801;49.414;19.474;2023-08-20T06:33:11;94459.97;;;30.40;56.42
75219;BME280;63801;49.414;19.474;2023-08-20T06:35:12;94459.47;;;30.82;55.41
75219;BME280;63801;49.414;19.474;2023-08-20T06:37:12;94460.47;;;31.24;54.50
75219;BME280;63801;49.414;19.474;2023-08-20T06:39:12;94460.00;;;31.62;53.48
75219;BME280;63801;49.414;19.474;2023-08-20T06:41:14;94459.47;;;32.00;52.91
75219;BME280;63801;49.414;19.474;2023-08-20T06:43:15;94458.47;;;32.30;52.20
75219;BME280;63801;49.414;19.474;2023-08-20T06:45:15;94462.84;;;32.64;51.01
75219;BME280;63801;49.414;19.474;2023-08-20T06:47:15;94464.25;;;32.92;49.61
75219;BME280;63801;49.414;19.474;2023-08-20T06:49:16;94462.38;;;33.13;48.29
75219;BME280;63801;49.414;19.474;2023-08-20T06:51:19;94461.97;;;33.29;47.70
75219;BME280;63801;49.414;19.474;2023-08-20T06:53:20;94470.59;;;33.40;46.92
75219;BME280;63801;49.414;19.474;2023-08-20T06:55:20;94465.69;;;33.50;46.84
75219;BME280;63801;49.414;19.474;2023-08-20T06:57:21;94470.38;;;33.68;46.91
75219;BME280;63801;49.414;19.474;2023-08-20T06:59:21;94466.13;;;33.87;45.74
75219;BME280;63801;49.414;19.474;2023-08-20T07:01:21;94463.06;;;34.14;45.40
75219;BME280;63801;49.414;19.474;2023-08-20T07:03:22;94462.88;;;34.33;45.22
75219;BME280;63801;49.414;19.474;2023-08-20T07:05:22;94466.63;;;34.44;45.26
75219;BME280;63801;49.414;19.474;2023-08-20T07:07:22;94464.94;;;34.67;44.46
75219;BME280;63801;49.414;19.474;2023-08-20T07:09:23;94472.56;;;34.81;44.02
75219;BME280;63801;49.414;19.474;2023-08-20T07:11:23;94459.84;;;35.00;43.55
75219;BME280;63801;49.414;19.474;2023-08-20T07:13:24;94469.25;;;35.18;43.60
75219;BME280;63801;49.414;19.474;2023-08-20T07:15:24;94465.31;;;35.30;43.53
75219;BME280;63801;49.414;19.474;2023-08-20T07:17:24;94482.97;;;35.56;42.70
75219;BME280;63801;49.414;19.474;2023-08-20T07:19:25;94473.03;;;35.75;42.26
75219;BME280;63801;49.414;19.474;2023-08-20T07:21:25;94475.00;;;35.95;41.59
75219;BME280;63801;49.414;19.474;2023-08-20T07:23:25;94484.19;;;36.16;41.21
75219;BME280;63801;49.414;19.474;2023-08-20T07:25:26;94471.47;;;36.26;41.23
75219;BME280;63801;49.414;19.474;2023-08-20T07:27:26;94471.75;;;36.28;41.06
75219;BME280;63801;49.414;19.474;2023-08-20T07:29:27;94472.13;;;36.41;40.92
75219;BME280;63801;49.414;19.474;2023-08-20T07:31:31;94476.88;;;36.61;40.59
75219;BME280;63801;49.414;19.474;2023-08-20T07:33:32;94473.16;;;36.75;40.37
75219;BME280;63801;49.414;19.474;2023-08-20T07:35:32;94479.25;;;36.68;39.89
75219;BME280;63801;49.414;19.474;2023-08-20T07:37:33;94477.47;;;36.70;40.33
75219;BME280;63801;49.414;19.474;2023-08-20T07:39:33;94484.13;;;36.41;39.99
75219;BME280;63801;49.414;19.474;2023-08-20T07:41:34;94475.44;;;36.39;40.05
75219;BME280;63801;49.414;19.474;2023-08-20T07:43:34;94476.84;;;36.55;39.84
75219;BME280;63801;49.414;19.474;2023-08-20T07:45:35;94468.06;;;36.79;39.43
75219;BME280;63801;49.414;19.474;2023-08-20T07:47:36;94469.91;;;36.87;39.53
75219;BME280;63801;49.414;19.474;2023-08-20T07:49:37;94471.84;;;37.07;39.49
75219;BME280;63801;49.414;19.474;2023-08-20T07:51:37;94465.28;;;37.21;38.98
75219;BME280;63801;49.414;19.474;2023-08-20T07:53:37;94472.00;;;37.35;39.01
75219;BME280;63801;49.414;19.474;2023-08-20T07:55:38;94472.44;;;37.22;39.06
75219;BME280;63801;49.414;19.474;2023-08-20T07:57:38;94467.09;;;37.24;39.12
75219;BME280;63801;49.414;19.474;2023-08-20T07:59:38;94469.44;;;37.37;38.94
75219;BME280;63801;49.414;19.474;2023-08-20T08:01:39;94471.53;;;37.48;38.87
75219;BME280;63801;49.414;19.474;2023-08-20T08:03:40;94461.38;;;37.67;38.68
75219;BME280;63801;49.414;19.474;2023-08-20T08:05:41;94456.81;;;37.81;38.25
75219;BME280;63801;49.414;19.474;2023-08-20T08:07:41;94468.41;;;38.05;37.82
75219;BME280;63801;49.414;19.474;2023-08-20T08:09:42;94460.22;;;38.18;37.85
75219;BME280;63801;49.414;19.474;2023-08-20T08:11:42;94463.56;;;38.39;37.52
75219;BME280;63801;49.414;19.474;2023-08-20T08:13:42;94458.47;;;38.48;37.38
75219;BME280;63801;49.414;19.474;2023-08-20T08:15:42;94465.09;;;38.40;37.03
75219;BME280;63801;49.414;19.474;2023-08-20T08:17:44;94455.66;;;38.48;36.91
75219;BME280;63801;49.414;19.474;2023-08-20T08:19:44;94456.16;;;38.58;36.87
75219;BME280;63801;49.414;19.474;2023-08-20T08:21:44;94450.53;;;38.63;37.01
75219;BME280;63801;49.414;19.474;2023-08-20T08:23:45;94454.63;;;38.51;36.81
75219;BME280;63801;49.414;19.474;2023-08-20T08:25:45;94451.28;;;38.58;36.85
75219;BME280;63801;49.414;19.474;2023-08-20T08:27:46;94450.50;;;38.75;36.77
75219;BME280;63801;49.414;19.474;2023-08-20T08:29:46;94449.72;;;38.85;36.61
75219;BME280;63801;49.414;19.474;2023-08-20T08:31:46;94456.13;;;38.86;36.80
75219;BME280;63801;49.414;19.474;2023-08-20T08:33:47;94456.91;;;38.81;36.45
75219;BME280;63801;49.414;19.474;2023-08-20T08:35:47;94448.94;;;38.74;36.64
75219;BME280;63801;49.414;19.474;2023-08-20T08:37:47;94455.91;;;38.67;36.44
75219;BME280;63801;49.414;19.474;2023-08-20T08:39:48;94446.41;;;38.64;35.87
75219;BME280;63801;49.414;19.474;2023-08-20T08:41:51;94437.19;;;38.58;36.48
75219;BME280;63801;49.414;19.474;2023-08-20T08:43:54;94443.84;;;38.61;36.50
75219;BME280;63801;49.414;19.474;2023-08-20T08:45:55;94445.94;;;38.55;36.09
75219;BME280;63801;49.414;19.474;2023-08-20T08:47:56;94437.97;;;38.48;36.23
75219;BME280;63801;49.414;19.474;2023-08-20T08:49:56;94443.09;;;38.44;36.57
75219;BME280;63801;49.414;19.474;2023-08-20T08:51:57;94433.59;;;38.41;36.90
75219;BME280;63801;49.414;19.474;2023-08-20T08:53:58;94440.78;;;38.42;36.38
75219;BME280;63801;49.414;19.474;2023-08-20T08:55:59;94440.25;;;38.16;36.61
75219;BME280;63801;49.414;19.474;2023-08-20T08:58:00;94438.41;;;37.80;36.76
75219;BME280;63801;49.414;19.474;2023-08-20T09:00:00;94446.44;;;37.39;37.33
75219;BME280;63801;49.414;19.474;2023-08-20T09:02:01;94437.56;;;37.03;38.00
75219;BME280;63801;49.414;19.474;2023-08-20T09:04:02;94440.56;;;36.57;37.83
75219;BME280;63801;49.414;19.474;2023-08-20T09:06:08;94441.19;;;36.10;38.48
75219;BME280;63801;49.414;19.474;2023-08-20T09:08:08;94447.22;;;35.71;39.49
75219;BME280;63801;49.414;19.474;2023-08-20T09:10:09;94438.97;;;35.22;39.41
75219;BME280;63801;49.414;19.474;2023-08-20T09:12:14;94437.13;;;34.63;40.33
75219;BME280;63801;49.414;19.474;2023-08-20T09:14:22;94439.81;;;34.23;40.60
75219;BME280;63801;49.414;19.474;2023-08-20T09:16:29;94444.72;;;33.69;40.98
75219;BME280;63801;49.414;19.474;2023-08-20T09:18:30;94450.13;;;33.11;41.54
75219;BME280;63801;49.414;19.474;2023-08-20T09:20:35;94452.84;;;32.72;42.20
75219;BME280;63801;49.414;19.474;2023-08-20T09:22:36;94445.72;;;32.38;42.20
75219;BME280;63801;49.414;19.474;2023-08-20T09:24:41;94452.66;;;32.10;43.15
75219;BME280;63801;49.414;19.474;2023-08-20T09:26:46;94459.19;;;31.89;43.14
75219;BME280;63801;49.414;19.474;2023-08-20T09:28:47;94446.69;;;31.66;43.33
75219;BME280;63801;49.414;19.474;2023-08-20T09:30:59;94434.75;;;31.38;43.69
75219;BME280;63801;49.414;19.474;2023-08-20T09:33:04;94452.56;;;31.41;44.04
75219;BME280;63801;49.414;19.474;2023-08-20T09:35:05;94452.41;;;31.26;44.24
75219;BME280;63801;49.414;19.474;2023-08-20T09:37:13;94460.47;;;31.06;44.65
75219;BME280;63801;49.414;19.474;2023-08-20T09:39:14;94455.16;;;30.99;44.73
75219;BME280;63801;49.414;19.474;2023-08-20T09:41:15;94453.28;;;30.87;44.76
75219;BME280;63801;49.414;19.474;2023-08-20T09:43:16;94462.84;;;30.67;45.04
75219;BME280;63801;49.414;19.474;2023-08-20T09:45:18;94459.81;;;30.44;45.32
75219;BME280;63801;49.414;19.474;2023-08-20T09:47:20;94456.97;;;30.25;45.71
75219;BME280;63801;49.414;19.474;2023-08-20T09:49:26;94449.94;;;30.12;46.22
75219;BME280;63801;49.414;19.474;2023-08-20T09:51:30;94453.69;;;30.18;46.42
75219;BME280;63801;49.414;19.474;2023-08-20T09:53:38;94452.09;;;30.08;46.48
75219;BME280;63801;49.414;19.474;2023-08-20T09:55:41;94448.53;;;30.07;47.04
75219;BME280;63801;49.414;19.474;2023-08-20T09:57:42;94451.84;;;30.24;47.58
75219;BME280;63801;49.414;19.474;2023-08-20T09:59:43;94446.84;;;30.50;47.21
75219;BME280;63801;49.414;19.474;2023-08-20T10:01:44;94435.28;;;30.60;46.92
75219;BME280;63801;49.414;19.474;2023-08-20T10:03:45;94443.38;;;30.76;47.14
75219;BME280;63801;49.414;19.474;2023-08-20T10:05:49;94445.25;;;30.89;46.74
75219;BME280;63801;49.414;19.474;2023-08-20T10:07:50;94437.56;;;31.02;46.79
75219;BME280;63801;49.414;19.474;2023-08-20T10:09:50;94435.41;;;31.33;47.10
75219;BME280;63801;49.414;19.474;2023-08-20T10:11:52;94429.97;;;31.57;46.51
75219;BME280;63801;49.414;19.474;2023-08-20T10:13:53;94434.22;;;31.94;46.37
75219;BME280;63801;49.414;19.474;2023-08-20T10:15:54;94428.31;;;32.11;45.73
75219;BME280;63801;49.414;19.474;2023-08-20T10:17:57;94440.50;;;32.22;45.76
75219;BME280;63801;49.414;19.474;2023-08-20T10:19:58;94428.56;;;32.31;45.08
75219;BME280;63801;49.414;19.474;2023-08-20T10:22:02;94438.13;;;32.39;45.16
75219;BME280;63801;49.414;19.474;2023-08-20T10:24:08;94426.81;;;32.33;44.61
75219;BME280;63801;49.414;19.474;2023-08-20T10:26:10;94432.69;;;32.35;45.05
75219;BME280;63801;49.414;19.474;2023-08-20T10:28:31;94435.44;;;32.44;44.78
75219;BME280;63801;49.414;19.474;2023-08-20T10:30:31;94431.53;;;32.51;45.01
75219;BME280;63801;49.414;19.474;2023-08-20T10:32:54;94436.63;;;32.62;44.82
75219;BME280;63801;49.414;19.474;2023-08-20T10:34:57;94425.91;;;32.60;44.73
75219;BME280;63801;49.414;19.474;2023-08-20T10:37:01;94414.31;;;32.52;44.80
75219;BME280;63801;49.414;19.474;2023-08-20T10:39:05;94424.81;;;32.58;45.04